Time;durP1;ratioP1;P1;durP2;ratioP2;P2;SDS_P1;SDS_P2;PMS_P1;PMS_P2;Temp;Humidity;BMP_temperature;BMP_pressure;BME280_temperature;BME280_humidity;BME280_pressure;Samples;Min_cycle;Max_cycle;Signal;HPM_P1;HPM_P2
2021/03/26 18:18:23;;;;;;;12.55;6.20;;;18.40;50.60;;;;;;5947731;28;20427;-85
2021/03/26 18:21:40;;;;;;;23.58;6.90;;;18.40;51.00;;;;;;6118103;29;20070;-88
2021/03/26 18:25:11;;;;;;;12.27;6.40;;;18.20;51.10;;;;;;6134082;29;20031;-86
2021/03/26 18:28:33;;;;;;;17.15;6.80;;;18.10;51.40;;;;;;6125178;29;20036;-85
2021/03/26 18:32:10;;;;;;;14.88;6.18;;;18.00;51.60;;;;;;6140211;29;20098;-83
2021/03/26 18:35:40;;;;;;;13.65;5.63;;;17.90;51.60;;;;;;6114445;29;20068;-85
2021/03/26 18:39:17;;;;;;;15.55;6.30;;;17.80;51.70;;;;;;6121775;29;20116;-85
2021/03/26 18:42:58;;;;;;;20.60;6.82;;;17.80;51.80;;;;;;6071023;29;20762;-84
2021/03/26 18:46:47;;;;;;;14.45;6.57;;;17.80;51.90;;;;;;6099353;29;20503;-84
2021/03/26 18:50:01;;;;;;;14.07;6.60;;;17.80;52.00;;;;;;6072102;29;20044;-85
2021/03/26 18:53:40;;;;;;;18.83;6.07;;;17.80;51.90;;;;;;6116226;29;20054;-83
2021/03/26 18:56:54;;;;;;;14.38;6.72;;;17.70;52.10;;;;;;6124692;29;20139;-86
2021/03/26 19:00:29;;;;;;;17.65;6.88;;;17.70;52.30;;;;;;6129044;29;20035;-86
2021/03/26 19:03:47;;;;;;;12.18;6.63;;;17.90;52.50;;;;;;6125394;29;20047;-85
2021/03/26 19:07:08;;;;;;;21.70;7.38;;;17.70;52.40;;;;;;6122612;29;20533;-85
2021/03/26 19:10:29;;;;;;;10.70;5.80;;;17.60;52.40;;;;;;6127908;28;20049;-88
2021/03/26 19:13:41;;;;;;;16.40;6.85;;;17.60;52.50;;;;;;6163974;28;20097;-87
2021/03/26 19:17:11;;;;;;;16.77;7.63;;;17.60;52.50;;;;;;6167224;28;20098;-88
2021/03/26 19:20:21;;;;;;;14.07;7.40;;;17.60;52.60;;;;;;6148091;28;20101;-87
2021/03/26 19:23:43;;;;;;;15.15;7.28;;;17.60;52.60;;;;;;6149852;28;20022;-86
2021/03/26 19:27:03;;;;;;;11.20;6.20;;;17.50;52.70;;;;;;6170303;28;20108;-87
2021/03/26 19:30:39;;;;;;;14.00;6.53;;;17.50;52.90;;;;;;6171352;28;20187;-86
2021/03/26 19:34:01;;;;;;;15.02;7.68;;;17.50;53.30;;;;;;6183424;28;20034;-87
2021/03/26 19:37:21;;;;;;;17.90;7.97;;;17.40;53.30;;;;;;6187878;28;20026;-85
2021/03/26 19:40:48;;;;;;;18.73;7.75;;;17.40;53.40;;;;;;6207711;28;20191;-86
2021/03/26 19:44:22;;;;;;;15.95;7.10;;;17.30;53.60;;;;;;6235519;28;20105;-86
2021/03/26 19:47:27;;;;;;;15.50;6.82;;;17.30;53.50;;;;;;6242117;28;20030;-83
2021/03/26 19:50:41;;;;;;;15.10;7.00;;;17.30;53.50;;;;;;6197993;28;20038;-85
2021/03/26 19:54:12;;;;;;;17.85;7.63;;;17.30;53.30;;;;;;6221230;28;20037;-87
2021/03/26 19:57:23;;;;;;;15.07;7.00;;;17.30;53.20;;;;;;6188133;28;20034;-83
2021/03/26 20:00:45;;;;;;;14.02;7.15;;;17.40;53.20;;;;;;6208424;28;20374;-85
2021/03/26 20:04:14;;;;;;;12.15;6.18;;;17.40;53.00;;;;;;6198172;28;20085;-86
2021/03/26 20:07:43;;;;;;;12.98;6.38;;;17.40;52.90;;;;;;6222610;28;20148;-87
2021/03/26 20:11:12;;;;;;;21.58;9.13;;;17.40;52.80;;;;;;6209257;28;20033;-87
2021/03/26 20:14:44;;;;;;;13.93;7.25;;;17.30;53.10;;;;;;6219887;28;20231;-86
2021/03/26 20:18:01;;;;;;;16.20;6.35;;;17.30;53.30;;;;;;6116713;29;20075;-84
2021/03/26 20:21:45;;;;;;;24.17;7.75;;;17.20;53.20;;;;;;6089842;29;20040;-84
2021/03/26 20:25:09;;;;;;;14.38;7.07;;;17.20;52.90;;;;;;6103471;29;20519;-84
2021/03/26 20:28:29;;;;;;;15.80;7.03;;;17.30;52.90;;;;;;6087204;29;20113;-83
2021/03/26 20:32:04;;;;;;;16.83;7.30;;;17.30;52.80;;;;;;6130284;29;20056;-84
2021/03/26 20:35:38;;;;;;;15.02;6.70;;;17.20;52.80;;;;;;6140352;29;20043;-85
2021/03/26 20:39:03;;;;;;;17.48;7.38;;;17.30;52.80;;;;;;6101604;29;20031;-84
2021/03/26 20:42:37;;;;;;;12.27;6.63;;;17.30;52.80;;;;;;6114452;29;20051;-85
2021/03/26 20:45:58;;;;;;;16.27;6.85;;;17.30;52.70;;;;;;6131194;29;20063;-83
2021/03/26 20:49:23;;;;;;;16.25;6.40;;;17.30;52.80;;;;;;6132284;29;20045;-86
2021/03/26 20:53:09;;;;;;;13.48;6.85;;;17.20;52.70;;;;;;6099451;29;20028;-84
2021/03/26 20:56:28;;;;;;;19.02;7.75;;;17.20;52.70;;;;;;6179757;28;20037;-87
2021/03/26 20:59:42;;;;;;;18.55;7.60;;;17.30;52.70;;;;;;6177833;28;20058;-86
2021/03/26 21:02:52;;;;;;;15.32;6.43;;;17.30;52.70;;;;;;6204279;28;20121;-86
2021/03/26 21:06:07;;;;;;;12.45;6.78;;;17.30;52.60;;;;;;6199522;28;20022;-85
2021/03/26 21:09:35;;;;;;;9.13;4.80;;;17.30;52.60;;;;;;6193833;28;20035;-85
2021/03/26 21:12:52;;;;;;;12.63;6.47;;;17.30;52.60;;;;;;6193669;28;20023;-87
2021/03/26 21:16:08;;;;;;;14.23;5.47;;;17.30;52.50;;;;;;6187437;28;20327;-86
2021/03/26 21:19:37;;;;;;;14.45;6.30;;;17.30;52.20;;;;;;6196153;28;20050;-85
2021/03/26 21:22:41;;;;;;;11.60;5.90;;;17.30;52.50;;;;;;6191172;28;20065;-86
2021/03/26 21:25:52;;;;;;;14.18;7.00;;;17.30;52.50;;;;;;6201830;28;20033;-85
2021/03/26 21:29:21;;;;;;;12.30;5.82;;;17.30;52.60;;;;;;6189251;28;20030;-84
2021/03/26 21:32:40;;;;;;;11.73;5.30;;;17.20;52.70;;;;;;6220614;28;20030;-85
2021/03/26 21:36:00;;;;;;;13.90;6.47;;;17.20;52.70;;;;;;6185151;28;20031;-85
2021/03/26 21:39:23;;;;;;;13.82;6.20;;;17.20;52.80;;;;;;6221355;28;20022;-86
2021/03/26 21:42:59;;;;;;;13.27;6.97;;;17.20;52.80;;;;;;6202229;28;20041;-84
2021/03/26 21:46:33;;;;;;;10.35;6.25;;;17.20;52.90;;;;;;6194085;28;20046;-83
2021/03/26 21:50:12;;;;;;;19.52;6.72;;;17.10;52.90;;;;;;6181740;28;20030;-85
2021/03/26 21:53:17;;;;;;;16.77;6.97;;;17.10;52.90;;;;;;6155986;28;20411;-85
2021/03/26 21:56:18;;;;;;;18.55;6.10;;;17.10;52.80;;;;;;6132450;29;20071;-86
2021/03/26 21:59:30;;;;;;;16.45;7.18;;;17.20;52.80;;;;;;6147632;29;20565;-85
2021/03/26 22:02:59;;;;;;;11.73;5.75;;;17.20;52.80;;;;;;6161953;28;20039;-88
2021/03/26 22:06:33;;;;;;;18.10;5.70;;;17.20;52.70;;;;;;6159810;28;20035;-87
2021/03/26 22:09:54;;;;;;;11.18;5.72;;;17.20;52.60;;;;;;6166607;28;20027;-85
2021/03/26 22:13:13;;;;;;;11.75;5.90;;;17.20;52.40;;;;;;6142488;29;20035;-85
2021/03/26 22:16:42;;;;;;;12.55;7.00;;;17.30;52.30;;;;;;6131540;29;20027;-85
2021/03/26 22:19:58;;;;;;;13.95;6.20;;;17.30;52.20;;;;;;6152669;28;20051;-86
2021/03/26 22:23:31;;;;;;;14.45;6.30;;;17.30;52.00;;;;;;6185200;28;20039;-90
2021/03/26 22:27:02;;;;;;;10.48;5.97;;;17.30;51.90;;;;;;6172835;28;20057;-91
2021/03/26 22:30:47;;;;;;;8.95;5.25;;;17.40;51.90;;;;;;6155013;29;20036;-89
2021/03/26 22:34:11;;;;;;;8.90;5.28;;;17.40;51.80;;;;;;6132200;29;20067;-89
2021/03/26 22:37:48;;;;;;;12.32;5.75;;;17.50;51.70;;;;;;6138620;29;20036;-89
2021/03/26 22:41:12;;;;;;;11.88;5.68;;;17.50;51.50;;;;;;6124020;29;20482;-89
2021/03/26 22:44:22;;;;;;;9.90;5.30;;;17.50;51.40;;;;;;6099564;29;20051;-89
2021/03/26 22:47:41;;;;;;;10.50;5.05;;;17.60;51.40;;;;;;6097982;29;20069;-89
2021/03/26 22:51:04;;;;;;;10.98;5.68;;;17.60;51.30;;;;;;6111877;29;20041;-91
2021/03/26 22:54:43;;;;;;;10.25;5.47;;;17.60;51.20;;;;;;6093761;29;20055;-91
2021/03/26 22:57:51;;;;;;;9.63;5.25;;;17.60;51.20;;;;;;6112740;29;20044;-89
2021/03/26 23:01:03;;;;;;;11.25;6.18;;;17.60;51.20;;;;;;6135857;29;20051;-91
2021/03/26 23:04:20;;;;;;;11.40;5.68;;;17.70;51.10;;;;;;6123666;29;20040;-89
2021/03/26 23:07:31;;;;;;;14.95;6.13;;;17.70;51.10;;;;;;6140538;28;20043;-87
2021/03/26 23:11:13;;;;;;;9.98;5.90;;;17.70;51.00;;;;;;6162997;29;20032;-90
2021/03/26 23:14:24;;;;;;;16.33;6.25;;;17.70;51.20;;;;;;6206067;28;20027;-90
2021/03/26 23:18:03;;;;;;;10.88;5.85;;;17.70;51.40;;;;;;6192705;28;20053;-91
2021/03/26 23:21:11;;;;;;;13.93;6.68;;;17.60;51.50;;;;;;6183385;28;20039;-87
2021/03/26 23:24:17;;;;;;;15.32;6.25;;;17.60;51.60;;;;;;6151994;28;20133;-88
2021/03/26 23:27:29;;;;;;;12.30;5.93;;;17.60;51.70;;;;;;6165410;28;20252;-87
2021/03/26 23:30:43;;;;;;;11.65;6.28;;;17.60;51.60;;;;;;6176443;28;20129;-87
2021/03/26 23:33:47;;;;;;;15.38;6.45;;;17.60;51.70;;;;;;6195699;28;20158;-88
2021/03/26 23:36:56;;;;;;;13.43;6.93;;;17.60;51.70;;;;;;6188925;28;20194;-87
2021/03/26 23:40:07;;;;;;;12.52;6.07;;;17.70;51.60;;;;;;6175838;28;20735;-87
2021/03/26 23:43:21;;;;;;;18.88;7.07;;;17.60;51.60;;;;;;6169106;28;20030;-88
2021/03/26 23:46:31;;;;;;;14.30;6.55;;;17.60;51.70;;;;;;6206576;28;20034;-87
2021/03/26 23:49:39;;;;;;;14.90;6.90;;;17.60;51.70;;;;;;6170703;28;20037;-88
2021/03/26 23:52:48;;;;;;;10.77;6.15;;;17.60;51.80;;;;;;6183395;28;20053;-88
2021/03/26 23:55:49;;;;;;;12.95;6.20;;;17.40;51.80;;;;;;6202516;28;20066;-87
2021/03/26 23:58:59;;;;;;;15.73;7.20;;;17.50;52.20;;;;;;6175952;28;20046;-87
